Metar z połowy godziny Komunikat METAR ze strony awiacja.imgw.pl Metar G00 EPWA METAR EPWA 160630Z 26019G29KT 9999 BKN025 07/02 Q0998 NOSIG=